Time;durP1;ratioP1;P1;durP2;ratioP2;P2;SDS_P1;SDS_P2;PMS_P1;PMS_P2;Temp;Humidity;BMP_temperature;BMP_pressure;BME280_temperature;BME280_humidity;BME280_pressure;Samples;Min_cycle;Max_cycle;Signal;HPM_P1;HPM_P2
2022/07/02 00:01:53;;;;;;;0.40;0.20;;;14.10;99.90;;;;;;5089060;28;20461;-67
2022/07/02 00:04:21;;;;;;;0.60;0.60;;;14.20;99.90;;;;;;5089879;28;20858;-67
2022/07/02 00:06:49;;;;;;;0.40;0.30;;;14.10;99.90;;;;;;5088948;28;20724;-67
2022/07/02 00:09:15;;;;;;;0.40;0.20;;;14.20;99.90;;;;;;5089768;28;20381;-67
2022/07/02 00:11:42;;;;;;;0.40;0.20;;;14.20;99.90;;;;;;5090093;28;20855;-67
2022/07/02 00:14:09;;;;;;;0.40;0.20;;;14.20;99.90;;;;;;5089007;28;20466;-67
2022/07/02 00:16:35;;;;;;;0.40;0.30;;;14.10;99.90;;;;;;5089316;28;20390;-67
2022/07/02 00:19:01;;;;;;;0.40;0.20;;;14.00;99.90;;;;;;5088556;28;20402;-67
2022/07/02 00:21:27;;;;;;;0.40;0.20;;;14.00;99.90;;;;;;5089266;28;20394;-67
2022/07/02 00:23:53;;;;;;;0.40;0.20;;;14.00;99.90;;;;;;5088517;28;20931;-67
2022/07/02 00:26:32;;;;;;;0.40;0.30;;;13.90;99.90;;;;;;5089629;28;20465;-67
2022/07/02 00:29:19;;;;;;;0.40;0.30;;;13.90;99.90;;;;;;5088485;28;20510;-67
2022/07/02 00:31:46;;;;;;;0.40;0.30;;;14.00;99.90;;;;;;5093458;28;20466;-67
2022/07/02 00:34:13;;;;;;;0.40;0.20;;;13.90;99.90;;;;;;5092400;28;20390;-66
2022/07/02 00:36:39;;;;;;;0.40;0.20;;;13.90;99.90;;;;;;5093237;28;20703;-67
2022/07/02 00:39:05;;;;;;;0.40;0.30;;;13.80;99.90;;;;;;5092685;28;20378;-67
2022/07/02 00:41:32;;;;;;;0.40;0.22;;;13.70;99.90;;;;;;5093562;28;20390;-66
2022/07/02 00:43:59;;;;;;;0.40;0.20;;;13.80;99.90;;;;;;5091770;28;20428;-67
2022/07/02 00:46:27;;;;;;;0.40;0.30;;;13.80;99.90;;;;;;5093120;28;20424;-67
2022/07/02 00:48:53;;;;;;;0.40;0.20;;;13.70;99.90;;;;;;5092213;28;20794;-67
2022/07/02 00:51:19;;;;;;;0.60;0.60;;;13.80;99.90;;;;;;5092925;28;20370;-67
2022/07/02 00:53:45;;;;;;;0.40;0.20;;;13.90;99.90;;;;;;5092903;28;20378;-67
2022/07/02 00:56:10;;;;;;;0.40;0.20;;;13.90;99.90;;;;;;5092155;28;20370;-67
2022/07/02 00:58:36;;;;;;;0.40;0.20;;;13.90;99.90;;;;;;5092773;28;20448;-67
2022/07/02 01:01:02;;;;;;;0.40;0.30;;;13.90;99.90;;;;;;5091846;28;20728;-67
2022/07/02 01:03:30;;;;;;;0.40;0.30;;;13.80;99.90;;;;;;5092164;28;20502;-66
2022/07/02 01:05:57;;;;;;;0.40;0.30;;;13.80;99.90;;;;;;5092150;28;20381;-66
2022/07/02 01:11:11;;;;;;;0.50;0.50;;;13.80;99.90;;;;;;5091912;28;21124;-66
2022/07/02 01:13:37;;;;;;;0.40;0.28;;;13.60;99.90;;;;;;5092555;28;20398;-66
2022/07/02 01:16:03;;;;;;;0.40;0.30;;;13.60;99.90;;;;;;5092152;28;20378;-66
2022/07/02 01:18:29;;;;;;;0.80;0.80;;;13.70;99.90;;;;;;5091455;28;20521;-66
2022/07/02 01:20:55;;;;;;;0.40;0.30;;;13.60;99.90;;;;;;5073636;28;20459;-66
2022/07/02 01:23:21;;;;;;;0.40;0.20;;;13.70;99.90;;;;;;5074222;28;20890;-66
2022/07/02 01:25:53;;;;;;;0.40;0.40;;;13.60;99.90;;;;;;5092794;28;20396;-66
2022/07/02 01:28:20;;;;;;;0.40;0.20;;;13.60;99.90;;;;;;5092665;28;20390;-66
2022/07/02 01:30:47;;;;;;;0.40;0.30;;;13.70;99.90;;;;;;5092469;28;20428;-67
2022/07/02 01:33:13;;;;;;;0.40;0.20;;;13.70;99.90;;;;;;5091790;28;20470;-67
2022/07/02 01:35:39;;;;;;;0.40;0.20;;;13.70;99.90;;;;;;5092817;28;20834;-67
2022/07/02 01:38:04;;;;;;;0.40;0.30;;;13.70;99.90;;;;;;5059298;28;20422;-66
2022/07/02 01:40:30;;;;;;;0.40;0.30;;;13.70;99.90;;;;;;5080677;28;20380;-67
2022/07/02 01:42:56;;;;;;;0.40;0.20;;;13.60;99.90;;;;;;5071049;28;20415;-67
2022/07/02 01:45:22;;;;;;;0.40;0.20;;;13.60;99.90;;;;;;5072337;28;20378;-67
2022/07/02 01:47:48;;;;;;;0.40;0.20;;;13.60;99.90;;;;;;5083565;28;20386;-67
2022/07/02 01:50:13;;;;;;;0.40;0.20;;;13.50;99.90;;;;;;5091384;28;20446;-67
2022/07/02 01:52:39;;;;;;;0.40;0.20;;;13.50;99.90;;;;;;5091883;28;20398;-67
2022/07/02 01:55:05;;;;;;;0.40;0.40;;;13.40;99.90;;;;;;5091489;28;20380;-67
2022/07/02 01:57:35;;;;;;;0.40;0.30;;;13.40;99.90;;;;;;5074121;28;20378;-66
2022/07/02 02:00:05;;;;;;;0.40;0.20;;;13.40;99.90;;;;;;5091142;28;20382;-67
2022/07/02 02:02:30;;;;;;;0.40;0.20;;;13.50;99.90;;;;;;5091816;28;20378;-67
2022/07/02 02:04:56;;;;;;;0.40;0.20;;;13.60;99.90;;;;;;5091359;28;20370;-67
2022/07/02 02:07:22;;;;;;;0.40;0.30;;;13.40;99.90;;;;;;5091846;28;20850;-67
2022/07/02 02:09:47;;;;;;;0.40;0.20;;;13.50;99.90;;;;;;5090821;28;20396;-67
2022/07/02 02:12:13;;;;;;;0.40;0.20;;;13.50;99.90;;;;;;5091049;28;20860;-67
2022/07/02 02:14:39;;;;;;;0.40;0.20;;;13.50;99.90;;;;;;5092094;28;20865;-67
2022/07/02 02:17:04;;;;;;;0.40;0.30;;;13.40;99.90;;;;;;5090970;28;20510;-67
2022/07/02 02:19:30;;;;;;;0.40;0.30;;;13.50;99.90;;;;;;5091589;28;20432;-67
2022/07/02 02:21:56;;;;;;;0.40;0.20;;;13.50;99.90;;;;;;5091142;28;20465;-67
2022/07/02 02:24:22;;;;;;;0.40;0.20;;;13.50;99.90;;;;;;5091843;28;20837;-67
2022/07/02 02:26:48;;;;;;;0.40;0.20;;;13.50;99.90;;;;;;5091576;28;20414;-67
2022/07/02 02:29:13;;;;;;;0.40;0.20;;;13.50;99.90;;;;;;5090747;28;20421;-67
2022/07/02 02:31:39;;;;;;;0.40;0.20;;;13.50;99.90;;;;;;5090504;28;20886;-67
2022/07/02 02:34:05;;;;;;;0.40;0.20;;;13.50;99.90;;;;;;5072338;28;20378;-67
2022/07/02 02:36:31;;;;;;;0.40;0.20;;;13.50;99.90;;;;;;5091131;28;20406;-67
2022/07/02 02:38:56;;;;;;;0.80;0.80;;;13.50;99.90;;;;;;5090041;28;20901;-66
2022/07/02 02:41:22;;;;;;;0.40;0.20;;;13.50;99.90;;;;;;5090135;28;20437;-67
2022/07/02 02:43:48;;;;;;;0.40;0.20;;;13.40;99.90;;;;;;5090180;28;20918;-67
2022/07/02 02:46:13;;;;;;;0.40;0.30;;;13.40;99.90;;;;;;5089853;28;20374;-67
2022/07/02 02:48:45;;;;;;;0.40;0.30;;;13.50;99.90;;;;;;5090270;28;20377;-67
2022/07/02 02:57:34;;;;;;;0.40;0.30;;;13.60;99.90;;;;;;5128197;22;20564;-71
2022/07/02 03:00:00;;;;;;;0.40;0.30;;;13.70;99.90;;;;;;5010942;28;20408;-73
2022/07/02 03:02:26;;;;;;;0.40;0.20;;;13.70;99.90;;;;;;5013098;28;20729;-72
2022/07/02 03:04:51;;;;;;;0.40;0.30;;;13.60;99.90;;;;;;5022344;28;20397;-71
2022/07/02 03:07:17;;;;;;;0.40;0.20;;;13.80;99.90;;;;;;5022381;28;20418;-71
2022/07/02 03:09:43;;;;;;;0.40;0.20;;;13.60;99.90;;;;;;5028922;28;20380;-71
2022/07/02 03:12:09;;;;;;;0.40;0.30;;;13.50;99.90;;;;;;5010723;28;20389;-71
2022/07/02 03:14:35;;;;;;;0.40;0.20;;;13.40;99.90;;;;;;5025574;28;20407;-71
2022/07/02 03:17:00;;;;;;;0.40;0.20;;;13.50;99.90;;;;;;5008074;28;20423;-72
2022/07/02 03:19:26;;;;;;;0.40;0.20;;;13.50;99.90;;;;;;5011164;28;20915;-71
2022/07/02 03:21:57;;;;;;;1.10;1.00;;;13.50;99.90;;;;;;5011527;28;20421;-71
2022/07/02 03:24:23;;;;;;;0.40;0.30;;;13.50;99.90;;;;;;5019658;28;20985;-72
2022/07/02 03:26:49;;;;;;;0.40;0.30;;;13.40;99.90;;;;;;5030836;28;20445;-72
2022/07/02 03:29:14;;;;;;;0.40;0.30;;;13.30;99.90;;;;;;5010496;28;20396;-72
2022/07/02 03:31:42;;;;;;;0.40;0.20;;;13.30;99.90;;;;;;5015532;28;20407;-72
2022/07/02 03:34:13;;;;;;;0.40;0.20;;;13.20;99.90;;;;;;5029841;28;20759;-72
2022/07/02 03:36:39;;;;;;;0.40;0.30;;;13.30;99.90;;;;;;5023917;28;20385;-72
2022/07/02 03:39:05;;;;;;;0.40;0.30;;;13.40;99.90;;;;;;5010061;28;20391;-73
2022/07/02 03:41:32;;;;;;;0.40;0.30;;;13.40;99.90;;;;;;5023157;28;20398;-72
2022/07/02 03:43:59;;;;;;;0.40;0.20;;;13.30;99.90;;;;;;5023933;28;20413;-72
2022/07/02 03:46:25;;;;;;;0.40;0.20;;;13.30;99.90;;;;;;4992525;28;21031;-73
2022/07/02 03:48:50;;;;;;;0.40;0.20;;;13.30;99.90;;;;;;5011312;28;20480;-73
2022/07/02 03:51:16;;;;;;;0.40;0.30;;;13.10;99.90;;;;;;5010481;28;20420;-73
2022/07/02 03:53:42;;;;;;;0.40;0.30;;;13.30;99.90;;;;;;5023547;28;20464;-73
2022/07/02 03:56:08;;;;;;;0.40;0.20;;;13.40;99.90;;;;;;5023195;28;20416;-73
2022/07/02 03:58:34;;;;;;;0.40;0.30;;;13.40;99.90;;;;;;5010557;28;20900;-73
2022/07/02 04:00:59;;;;;;;0.40;0.20;;;13.30;99.90;;;;;;5012629;28;20407;-73
2022/07/02 04:03:25;;;;;;;0.40;0.30;;;13.40;99.90;;;;;;5019078;28;20408;-72
2022/07/02 04:05:51;;;;;;;0.60;0.60;;;13.50;99.90;;;;;;5013656;28;20389;-72
2022/07/02 04:08:17;;;;;;;0.40;0.30;;;13.50;99.90;;;;;;5014044;28;20428;-72
2022/07/02 04:10:43;;;;;;;0.40;0.20;;;13.40;99.90;;;;;;5023340;28;20391;-72
2022/07/02 04:13:10;;;;;;;0.40;0.30;;;13.40;99.90;;;;;;5029930;28;20392;-73
2022/07/02 04:15:36;;;;;;;0.40;0.30;;;13.50;99.90;;;;;;5014494;28;20389;-72
2022/07/02 04:18:02;;;;;;;0.40;0.20;;;13.40;99.90;;;;;;5014899;28;20409;-72
2022/07/02 04:20:28;;;;;;;0.40;0.20;;;13.50;99.90;;;;;;5014009;28;20396;-72
2022/07/02 04:22:53;;;;;;;0.40;0.30;;;13.50;99.90;;;;;;5028115;28;20739;-72
2022/07/02 04:25:19;;;;;;;0.40;0.40;;;13.50;99.90;;;;;;5013889;28;20392;-73
2022/07/02 04:27:45;;;;;;;0.40;0.30;;;13.30;99.90;;;;;;5029780;28;20417;-72
2022/07/02 04:30:11;;;;;;;0.40;0.20;;;13.20;99.90;;;;;;5028717;28;20416;-72
2022/07/02 04:32:37;;;;;;;0.40;0.20;;;13.20;99.90;;;;;;5014319;28;20464;-71
2022/07/02 04:35:03;;;;;;;0.40;0.20;;;13.20;99.90;;;;;;5026227;28;20401;-71
2022/07/02 04:37:29;;;;;;;0.40;0.30;;;13.30;99.90;;;;;;5014053;28;20399;-71
2022/07/02 04:39:55;;;;;;;0.40;0.20;;;13.40;99.90;;;;;;5015599;28;20753;-71
2022/07/02 04:42:23;;;;;;;0.60;0.50;;;13.30;99.90;;;;;;5015458;28;20391;-72
2022/07/02 04:44:48;;;;;;;0.40;0.30;;;13.30;99.90;;;;;;5024157;28;20466;-71
2022/07/02 04:47:14;;;;;;;0.40;0.20;;;13.40;99.90;;;;;;5013196;28;20489;-71
2022/07/02 04:49:40;;;;;;;0.40;0.30;;;13.40;99.90;;;;;;5031907;28;20395;-71
2022/07/02 04:52:05;;;;;;;0.40;0.30;;;13.40;99.90;;;;;;5031569;28;20724;-72
2022/07/02 04:54:31;;;;;;;0.40;0.30;;;13.40;99.90;;;;;;5033003;28;20935;-71
2022/07/02 04:56:57;;;;;;;0.40;0.30;;;13.50;99.90;;;;;;5017172;28;20449;-71
2022/07/02 04:59:23;;;;;;;0.40;0.30;;;13.50;99.90;;;;;;4995712;28;20396;-71
2022/07/02 05:01:49;;;;;;;0.40;0.20;;;13.50;99.90;;;;;;5018050;28;20437;-71
2022/07/02 05:04:15;;;;;;;0.40;0.20;;;13.70;99.90;;;;;;5032532;28;20421;-71
2022/07/02 05:06:40;;;;;;;0.40;0.20;;;13.70;99.90;;;;;;5030689;28;20395;-71
2022/07/02 05:09:06;;;;;;;0.70;0.70;;;13.70;99.90;;;;;;5025664;28;20726;-71
2022/07/02 05:11:32;;;;;;;0.40;0.20;;;13.70;99.90;;;;;;5013285;28;20902;-71
2022/07/02 05:13:57;;;;;;;0.40;0.30;;;13.80;99.90;;;;;;5030003;28;20478;-71
2022/07/02 05:16:23;;;;;;;0.40;0.20;;;14.00;99.90;;;;;;5026930;28;20800;-71
2022/07/02 05:18:49;;;;;;;0.40;0.30;;;14.00;99.90;;;;;;5014793;28;20494;-71
2022/07/02 05:21:15;;;;;;;0.40;0.20;;;14.10;99.90;;;;;;5026103;28;20451;-72
2022/07/02 05:23:40;;;;;;;0.40;0.20;;;14.30;99.90;;;;;;5014356;28;20469;-71
2022/07/02 05:26:06;;;;;;;0.40;0.20;;;14.20;99.90;;;;;;5015405;28;20885;-71
2022/07/02 05:28:32;;;;;;;0.50;0.50;;;14.30;99.90;;;;;;5018023;28;20824;-71
2022/07/02 05:30:58;;;;;;;0.40;0.30;;;14.40;99.90;;;;;;5020138;28;20877;-71
2022/07/02 05:33:24;;;;;;;0.40;0.20;;;14.40;99.90;;;;;;5026469;28;20449;-72
2022/07/02 05:35:49;;;;;;;0.40;0.20;;;14.50;99.90;;;;;;5032615;28;20383;-72
2022/07/02 05:38:15;;;;;;;0.40;0.20;;;14.60;99.90;;;;;;5032039;28;20379;-72
2022/07/02 05:40:41;;;;;;;0.40;0.30;;;14.60;99.90;;;;;;5015113;28;20397;-71
2022/07/02 05:43:07;;;;;;;0.40;0.30;;;14.70;99.90;;;;;;5016107;28;20435;-71
2022/07/02 05:45:32;;;;;;;0.80;0.80;;;14.80;99.90;;;;;;5012173;28;20399;-72
2022/07/02 05:47:58;;;;;;;0.40;0.30;;;14.80;99.90;;;;;;5024985;28;20398;-71
2022/07/02 05:50:23;;;;;;;0.40;0.20;;;14.80;99.90;;;;;;5023869;28;20475;-71
2022/07/02 05:52:49;;;;;;;0.40;0.20;;;14.90;99.90;;;;;;5023091;28;20403;-71
2022/07/02 05:55:15;;;;;;;0.40;0.20;;;15.00;99.90;;;;;;5023365;28;20393;-72
2022/07/02 05:57:40;;;;;;;0.40;0.30;;;15.20;99.90;;;;;;4994936;28;20903;-71
2022/07/02 06:00:08;;;;;;;0.40;0.27;;;15.20;99.90;;;;;;5016428;28;20618;-71
2022/07/02 06:02:34;;;;;;;0.40;0.30;;;15.20;99.90;;;;;;5019213;28;20410;-71
2022/07/02 06:07:38;;;;;;;0.50;0.50;;;15.30;99.90;;;;;;5018453;28;20396;-72
2022/07/02 06:07:45;;;;;;;0.40;0.20;;;15.30;99.90;;;;;;5011668;28;20392;-71
2022/07/02 06:10:17;;;;;;;0.40;0.20;;;15.60;99.90;;;;;;5012013;28;20385;-72
2022/07/02 06:12:47;;;;;;;0.40;0.20;;;15.70;99.90;;;;;;5016724;28;20405;-71
2022/07/02 06:15:13;;;;;;;0.40;0.20;;;15.80;99.90;;;;;;5029836;28;20907;-72
2022/07/02 06:17:39;;;;;;;0.40;0.30;;;15.90;99.90;;;;;;5028801;28;20494;-71
2022/07/02 06:20:05;;;;;;;0.40;0.20;;;16.00;99.90;;;;;;5026735;28;20815;-71
2022/07/02 06:22:30;;;;;;;0.40;0.20;;;16.00;99.90;;;;;;5028028;28;20405;-72
2022/07/02 06:24:57;;;;;;;0.40;0.30;;;16.00;99.90;;;;;;5024047;28;20425;-71
2022/07/02 06:27:22;;;;;;;0.40;0.30;;;16.00;99.90;;;;;;5027308;28;20404;-72
2022/07/02 06:29:48;;;;;;;0.40;0.30;;;16.20;99.90;;;;;;5013505;28;20404;-71
2022/07/02 06:32:16;;;;;;;0.40;0.30;;;16.30;99.90;;;;;;5020866;28;20746;-73
2022/07/02 06:34:42;;;;;;;0.40;0.20;;;16.40;99.90;;;;;;5013514;28;20400;-71
2022/07/02 06:37:08;;;;;;;0.40;0.40;;;16.40;99.90;;;;;;5011143;28;20422;-71
2022/07/02 06:39:33;;;;;;;0.40;0.30;;;16.50;99.90;;;;;;5021229;28;20418;-71
2022/07/02 06:44:43;;;;;;;0.40;0.30;;;16.60;99.90;;;;;;5010069;28;20548;-71
2022/07/02 06:47:09;;;;;;;0.40;0.30;;;16.70;99.90;;;;;;5017297;28;20422;-71
2022/07/02 06:49:35;;;;;;;1.98;1.88;;;16.80;99.90;;;;;;5016228;28;20400;-71
2022/07/02 06:52:00;;;;;;;1.80;1.70;;;16.90;99.90;;;;;;5010120;28;20861;-71
2022/07/02 06:54:26;;;;;;;0.40;0.30;;;16.90;99.90;;;;;;5029670;28;20398;-70
2022/07/02 06:56:52;;;;;;;0.40;0.20;;;17.00;99.90;;;;;;5020302;28;20412;-71
2022/07/02 06:59:17;;;;;;;0.93;0.63;;;17.00;99.90;;;;;;5022609;28;20395;-71
2022/07/02 07:01:43;;;;;;;0.40;0.20;;;17.00;99.90;;;;;;5022608;28;20387;-71
2022/07/02 07:04:09;;;;;;;0.40;0.40;;;17.00;99.90;;;;;;5025231;28;20434;-71
2022/07/02 07:06:43;;;;;;;2.10;1.90;;;17.10;99.90;;;;;;5009994;28;20502;-71
2022/07/02 07:09:09;;;;;;;0.40;0.20;;;17.20;99.90;;;;;;5018912;28;20525;-71
2022/07/02 07:11:35;;;;;;;0.40;0.20;;;17.20;99.90;;;;;;5022573;28;21121;-71
2022/07/02 07:14:01;;;;;;;0.40;0.30;;;17.20;99.90;;;;;;5010989;28;20380;-71
2022/07/02 07:16:27;;;;;;;0.50;0.40;;;17.30;99.90;;;;;;5016302;28;20403;-71
2022/07/02 07:21:18;;;;;;;0.40;0.20;;;17.50;99.90;;;;;;5017125;28;20432;-71
2022/07/02 07:23:43;;;;;;;0.40;0.20;;;17.60;99.90;;;;;;5023620;28;20499;-72
2022/07/02 07:26:09;;;;;;;0.40;0.30;;;17.60;99.90;;;;;;5021771;28;20411;-72
2022/07/02 07:28:35;;;;;;;0.50;0.50;;;17.70;99.90;;;;;;5029383;28;20391;-72
2022/07/02 07:31:00;;;;;;;2.30;2.10;;;17.70;99.90;;;;;;5025906;28;20745;-72
2022/07/02 07:33:26;;;;;;;0.40;0.20;;;17.80;99.90;;;;;;5010361;28;20525;-72
2022/07/02 07:35:52;;;;;;;0.40;0.30;;;17.80;99.90;;;;;;5029011;28;20414;-72
2022/07/02 07:38:17;;;;;;;0.40;0.30;;;17.80;99.90;;;;;;5020046;28;20399;-72
2022/07/02 07:40:45;;;;;;;1.30;1.00;;;17.90;99.90;;;;;;5010995;28;20380;-72
2022/07/02 07:43:11;;;;;;;0.85;0.85;;;17.90;99.90;;;;;;5011328;28;20415;-72
2022/07/02 07:45:37;;;;;;;0.70;0.70;;;18.00;99.90;;;;;;5025323;28;20447;-72
2022/07/02 07:48:03;;;;;;;0.40;0.30;;;18.10;99.90;;;;;;5030451;28;20375;-72
2022/07/02 07:50:29;;;;;;;0.40;0.20;;;18.20;99.90;;;;;;5015677;28;20396;-72
2022/07/02 07:52:55;;;;;;;0.40;0.20;;;18.20;99.90;;;;;;5018199;28;20403;-72
2022/07/02 07:55:20;;;;;;;0.40;0.20;;;18.30;99.90;;;;;;5029552;28;20473;-73
2022/07/02 07:57:46;;;;;;;0.40;0.20;;;18.20;99.90;;;;;;5014612;28;20413;-71
2022/07/02 08:00:12;;;;;;;0.40;0.20;;;18.20;99.90;;;;;;5017070;28;20797;-72
2022/07/02 08:02:37;;;;;;;0.40;0.30;;;18.40;99.90;;;;;;5025270;28;20401;-72
2022/07/02 08:05:03;;;;;;;0.40;0.20;;;18.50;99.90;;;;;;5015467;28;20408;-72
2022/07/02 08:07:38;;;;;;;0.40;0.30;;;18.50;99.90;;;;;;5024274;28;20402;-72
2022/07/02 08:10:06;;;;;;;0.40;0.30;;;18.50;99.90;;;;;;5029719;28;20395;-73
2022/07/02 08:12:31;;;;;;;0.40;0.30;;;18.50;99.90;;;;;;5029665;28;20467;-71
2022/07/02 08:14:59;;;;;;;0.40;0.30;;;18.60;99.90;;;;;;5029806;28;20946;-71
2022/07/02 08:17:29;;;;;;;0.40;0.20;;;18.80;99.90;;;;;;5024611;28;20766;-71
2022/07/02 08:19:56;;;;;;;0.40;0.20;;;18.80;99.90;;;;;;5010285;28;20392;-71
2022/07/02 08:22:31;;;;;;;0.40;0.30;;;18.90;99.90;;;;;;5029227;28;20787;-72
2022/07/02 08:24:56;;;;;;;0.40;0.20;;;19.00;99.90;;;;;;5011953;28;20962;-72
2022/07/02 08:27:22;;;;;;;0.40;0.30;;;19.10;99.90;;;;;;5023688;28;20411;-72
2022/07/02 08:29:47;;;;;;;0.40;0.30;;;19.20;99.90;;;;;;5029341;28;20795;-72
2022/07/02 08:32:13;;;;;;;0.40;0.20;;;19.20;99.90;;;;;;5029439;28;20790;-71
2022/07/02 08:34:39;;;;;;;0.40;0.20;;;19.40;99.90;;;;;;5020835;28;20451;-72
2022/07/02 08:37:05;;;;;;;0.40;0.20;;;19.40;99.90;;;;;;5010128;28;20849;-73
2022/07/02 08:39:31;;;;;;;0.40;0.20;;;19.40;99.90;;;;;;5027001;28;20394;-73
2022/07/02 08:41:58;;;;;;;0.52;0.50;;;19.40;99.90;;;;;;5016652;28;20480;-71
2022/07/02 08:44:27;;;;;;;0.40;0.20;;;19.60;99.90;;;;;;5007842;28;20491;-71
2022/07/02 08:46:55;;;;;;;0.40;0.20;;;19.70;99.90;;;;;;5010006;28;20734;-71
2022/07/02 08:49:21;;;;;;;0.60;0.60;;;19.70;99.90;;;;;;5011306;28;20410;-71
2022/07/02 08:52:12;;;;;;;1.00;0.70;;;19.80;99.90;;;;;;5004021;28;20398;-71
2022/07/02 08:54:35;;;;;;;0.40;0.20;;;19.70;99.90;;;;;;5024963;28;20417;-71
2022/07/02 08:57:48;;;;;;;0.40;0.30;;;19.70;99.90;;;;;;5021820;28;20431;-71
2022/07/02 09:00:19;;;;;;;0.40;0.30;;;19.60;99.90;;;;;;5027357;28;20427;-72
2022/07/02 09:02:50;;;;;;;0.40;0.30;;;19.70;99.90;;;;;;4997987;28;20412;-72
2022/07/02 09:05:17;;;;;;;0.40;0.30;;;19.70;99.90;;;;;;5026737;28;20891;-72
2022/07/02 09:07:45;;;;;;;0.40;0.30;;;19.80;99.90;;;;;;4995550;28;20405;-72
2022/07/02 09:10:11;;;;;;;0.40;0.30;;;19.90;99.90;;;;;;5013076;28;20393;-70
2022/07/02 09:12:39;;;;;;;0.60;0.60;;;20.10;99.90;;;;;;4996363;28;20410;-70
2022/07/02 09:15:06;;;;;;;0.40;0.30;;;20.20;99.90;;;;;;5013793;28;20439;-71
2022/07/02 09:17:32;;;;;;;0.40;0.30;;;20.50;99.90;;;;;;5025481;28;20438;-71
2022/07/02 09:19:58;;;;;;;0.40;0.20;;;20.40;99.90;;;;;;5026853;28;20390;-72
2022/07/02 09:22:35;;;;;;;0.40;0.20;;;20.40;99.90;;;;;;5012427;28;20446;-72
2022/07/02 09:25:12;;;;;;;0.50;0.40;;;20.40;99.90;;;;;;5013323;28;20471;-72
2022/07/02 09:27:38;;;;;;;0.40;0.20;;;20.60;99.90;;;;;;5012399;28;20408;-70
2022/07/02 09:30:10;;;;;;;0.40;0.30;;;20.60;99.90;;;;;;5013088;28;20397;-71
2022/07/02 09:32:41;;;;;;;0.40;0.30;;;20.60;99.90;;;;;;5012658;28;20432;-71
2022/07/02 09:35:07;;;;;;;0.40;0.20;;;20.70;99.90;;;;;;5032915;28;20393;-72
2022/07/02 09:37:33;;;;;;;0.40;0.20;;;20.60;99.90;;;;;;5018009;28;20753;-72
2022/07/02 09:40:01;;;;;;;0.40;0.30;;;20.60;99.90;;;;;;5019661;28;20478;-70
2022/07/02 09:42:32;;;;;;;0.40;0.20;;;20.90;99.90;;;;;;5023334;28;20455;-71
2022/07/02 09:44:59;;;;;;;0.40;0.20;;;20.90;99.90;;;;;;5014158;28;20881;-70
2022/07/02 09:47:39;;;;;;;0.40;0.30;;;21.10;99.90;;;;;;5031853;28;20811;-71
2022/07/02 09:50:06;;;;;;;0.40;0.20;;;21.10;99.90;;;;;;5019597;28;20397;-71
2022/07/02 09:52:32;;;;;;;0.40;0.20;;;21.30;99.90;;;;;;5014286;28;20397;-71
2022/07/02 09:54:59;;;;;;;0.40;0.30;;;21.20;99.90;;;;;;5006181;28;20447;-71
2022/07/02 09:57:26;;;;;;;0.40;0.30;;;21.20;99.90;;;;;;5011913;28;20967;-71
2022/07/02 09:59:52;;;;;;;0.40;0.20;;;21.20;99.90;;;;;;5012862;28;20753;-72
2022/07/02 10:02:24;;;;;;;0.40;0.20;;;21.30;99.90;;;;;;5026234;28;20391;-71
2022/07/02 10:04:54;;;;;;;0.40;0.20;;;21.50;99.90;;;;;;5030366;28;20442;-70
2022/07/02 10:07:24;;;;;;;0.40;0.20;;;21.60;99.90;;;;;;5012624;28;20468;-68
2022/07/02 10:09:52;;;;;;;0.40;0.30;;;21.80;99.90;;;;;;5022340;28;20397;-68
2022/07/02 10:12:19;;;;;;;0.40;0.30;;;21.90;99.90;;;;;;5012424;28;20454;-69
2022/07/02 10:14:45;;;;;;;0.40;0.30;;;21.90;99.90;;;;;;5022785;28;20495;-68
2022/07/02 10:17:13;;;;;;;0.40;0.40;;;22.00;99.90;;;;;;5031984;28;20442;-70
2022/07/02 10:19:39;;;;;;;0.40;0.20;;;21.90;99.90;;;;;;5011874;28;20393;-70
2022/07/02 10:22:06;;;;;;;0.40;0.20;;;22.00;99.90;;;;;;5019892;28;20411;-69
2022/07/02 10:24:33;;;;;;;0.40;0.30;;;22.10;99.90;;;;;;5029091;28;20517;-70
2022/07/02 10:27:00;;;;;;;0.40;0.30;;;22.20;99.90;;;;;;5012239;28;20454;-70
2022/07/02 10:29:27;;;;;;;0.40;0.30;;;22.30;99.90;;;;;;5022420;28;20410;-70
2022/07/02 10:32:22;;;;;;;0.40;0.27;;;22.50;99.90;;;;;;5014594;28;20402;-68
2022/07/02 10:35:15;;;;;;;0.40;0.20;;;22.40;99.90;;;;;;5019422;28;20406;-69
2022/07/02 10:37:42;;;;;;;0.40;0.30;;;22.60;99.90;;;;;;5016867;28;20527;-72
2022/07/02 10:40:09;;;;;;;0.40;0.20;;;22.50;99.90;;;;;;5011620;28;20467;-72
2022/07/02 10:42:46;;;;;;;0.40;0.20;;;22.50;99.90;;;;;;5026822;28;20449;-72
2022/07/02 10:45:20;;;;;;;0.40;0.20;;;22.80;99.90;;;;;;5014117;28;20550;-69
2022/07/02 10:48:06;;;;;;;0.50;0.50;;;22.90;99.90;;;;;;5017206;28;20391;-71
2022/07/02 10:50:40;;;;;;;0.40;0.20;;;22.90;99.90;;;;;;5030692;28;20383;-71
2022/07/02 10:53:27;;;;;;;0.40;0.30;;;23.00;99.90;;;;;;5016770;28;20411;-71
2022/07/02 10:55:55;;;;;;;0.40;0.30;;;22.90;99.90;;;;;;5012016;28;20400;-71
2022/07/02 10:58:27;;;;;;;0.40;0.20;;;23.00;99.90;;;;;;5019721;28;20441;-71
2022/07/02 11:00:53;;;;;;;0.40;0.22;;;22.80;99.90;;;;;;5030503;28;20422;-70
2022/07/02 11:03:21;;;;;;;0.40;0.30;;;23.10;99.90;;;;;;5024294;28;20428;-69
2022/07/02 11:06:02;;;;;;;0.40;0.30;;;23.20;99.90;;;;;;5017865;28;20534;-69
2022/07/02 11:08:43;;;;;;;0.40;0.20;;;23.20;99.90;;;;;;5010499;28;20396;-71
2022/07/02 11:11:10;;;;;;;0.40;0.30;;;23.30;99.90;;;;;;5026879;28;20814;-71
2022/07/02 11:13:55;;;;;;;0.40;0.30;;;23.30;99.90;;;;;;4988911;28;21305;-73
2022/07/02 11:16:26;;;;;;;0.40;0.30;;;23.50;99.80;;;;;;5019429;28;20381;-71
2022/07/02 11:18:53;;;;;;;0.40;0.30;;;23.60;99.80;;;;;;4993323;28;20424;-72
2022/07/02 11:21:22;;;;;;;0.40;0.20;;;23.70;99.90;;;;;;4993479;28;20393;-72
2022/07/02 11:23:49;;;;;;;0.40;0.30;;;23.80;99.30;;;;;;5010094;28;20425;-70
2022/07/02 11:26:20;;;;;;;0.40;0.30;;;23.80;98.80;;;;;;5010696;28;20377;-72
2022/07/02 11:28:46;;;;;;;0.40;0.30;;;23.90;98.10;;;;;;5010225;28;20377;-72
2022/07/02 11:31:12;;;;;;;0.40;0.20;;;24.10;97.90;;;;;;5022830;28;20445;-72
2022/07/02 11:33:50;;;;;;;0.40;0.20;;;24.20;96.50;;;;;;5009858;28;20443;-72
2022/07/02 11:36:16;;;;;;;0.40;0.20;;;24.00;96.10;;;;;;5010847;28;20529;-70
2022/07/02 11:38:46;;;;;;;0.40;0.20;;;24.50;96.00;;;;;;5010040;28;20401;-70
2022/07/02 11:41:29;;;;;;;0.40;0.20;;;24.60;95.30;;;;;;5010998;28;20763;-72
2022/07/02 11:43:56;;;;;;;0.60;0.60;;;25.20;93.80;;;;;;5010658;28;20491;-72
2022/07/02 11:46:28;;;;;;;0.40;0.20;;;26.10;92.00;;;;;;5012153;28;20385;-72
2022/07/02 11:48:57;;;;;;;0.40;0.20;;;26.70;91.50;;;;;;5030383;28;20380;-72
2022/07/02 11:51:24;;;;;;;0.40;0.20;;;27.20;91.00;;;;;;5027435;28;20406;-70
2022/07/02 11:53:58;;;;;;;0.40;0.30;;;26.70;90.60;;;;;;5010716;28;20411;-70
2022/07/02 11:56:23;;;;;;;0.40;0.20;;;27.20;91.30;;;;;;5010442;28;20385;-71
2022/07/02 11:58:49;;;;;;;0.40;0.20;;;27.80;84.80;;;;;;5009551;28;20959;-71
2022/07/02 12:01:28;;;;;;;0.40;0.20;;;29.20;78.30;;;;;;5010623;28;20393;-69
2022/07/02 12:04:03;;;;;;;0.40;0.20;;;28.80;73.10;;;;;;5019414;28;20420;-73
2022/07/02 12:06:31;;;;;;;0.40;0.20;;;28.40;77.20;;;;;;5029864;28;20477;-71
2022/07/02 12:08:59;;;;;;;0.50;0.50;;;28.10;76.10;;;;;;5030230;28;20383;-73
2022/07/02 12:11:26;;;;;;;0.40;0.20;;;28.50;81.80;;;;;;5029869;28;20918;-71
2022/07/02 12:13:53;;;;;;;0.40;0.20;;;28.90;76.20;;;;;;5029327;28;20387;-71
2022/07/02 12:16:21;;;;;;;0.40;0.20;;;29.10;79.00;;;;;;5014545;28;20393;-70
2022/07/02 12:19:07;;;;;;;0.40;0.20;;;29.50;72.20;;;;;;5009571;28;20574;-71
2022/07/02 12:21:46;;;;;;;0.40;0.20;;;30.30;70.60;;;;;;5009633;28;20834;-71
2022/07/02 12:24:35;;;;;;;0.40;0.20;;;30.40;69.10;;;;;;4994216;28;20416;-71
2022/07/02 12:27:08;;;;;;;0.40;0.20;;;30.60;68.70;;;;;;5015624;28;20481;-72
2022/07/02 12:29:56;;;;;;;0.40;0.20;;;30.00;70.00;;;;;;5033231;28;20524;-71
2022/07/02 12:32:32;;;;;;;0.40;0.20;;;29.70;69.00;;;;;;5033458;28;20852;-69
2022/07/02 12:35:03;;;;;;;0.40;0.20;;;28.60;69.10;;;;;;5033669;28;20395;-70
2022/07/02 12:37:31;;;;;;;0.40;0.20;;;29.00;70.80;;;;;;5033380;28;20433;-70
2022/07/02 12:40:01;;;;;;;0.40;0.20;;;28.40;71.20;;;;;;5032305;28;20407;-71
2022/07/02 12:42:28;;;;;;;0.40;0.20;;;28.80;72.40;;;;;;5022215;28;20455;-71
2022/07/02 12:44:58;;;;;;;0.40;0.20;;;29.30;69.40;;;;;;5022933;28;20474;-70
2022/07/02 12:47:27;;;;;;;0.40;0.30;;;29.30;68.50;;;;;;5022807;28;20408;-70
2022/07/02 12:50:09;;;;;;;0.40;0.20;;;28.00;69.60;;;;;;5022568;28;20445;-71
2022/07/02 12:52:50;;;;;;;0.40;0.30;;;28.40;70.60;;;;;;5004150;28;20848;-72
2022/07/02 12:55:31;;;;;;;0.40;0.20;;;28.20;74.50;;;;;;5021428;28;20399;-72
2022/07/02 12:57:59;;;;;;;0.40;0.30;;;28.40;79.70;;;;;;5021097;28;20502;-71
2022/07/02 13:00:26;;;;;;;0.40;0.20;;;28.60;75.50;;;;;;5021701;28;20404;-71
2022/07/02 13:03:12;;;;;;;0.40;0.20;;;28.50;73.80;;;;;;5021906;28;20736;-73
2022/07/02 13:05:43;;;;;;;0.40;0.20;;;28.60;78.00;;;;;;5018539;28;20460;-71
2022/07/02 13:08:08;;;;;;;0.40;0.30;;;28.60;73.40;;;;;;5021191;28;20799;-72